sensor_id;sensor_type;location;lat;lon;timestamp;pressure;altitude;pressure_sealevel;temperature;humidity
19594;BME280;9944;48.240;16.478;2023-08-12T00:00:33;100293.88;;;17.93;63.46
19594;BME280;9944;48.240;16.478;2023-08-12T00:04:36;100294.81;;;17.90;63.64
19594;BME280;9944;48.240;16.478;2023-08-12T00:08:40;100293.13;;;17.86;63.69
19594;BME280;9944;48.240;16.478;2023-08-12T00:12:43;100289.63;;;17.84;63.83
19594;BME280;9944;48.240;16.478;2023-08-12T00:16:48;100298.56;;;17.83;63.94
19594;BME280;9944;48.240;16.478;2023-08-12T00:20:52;100298.63;;;17.80;64.10
19594;BME280;9944;48.240;16.478;2023-08-12T00:24:55;100304.03;;;17.77;64.23
19594;BME280;9944;48.240;16.478;2023-08-12T00:28:59;100305.00;;;17.74;64.43
19594;BME280;9944;48.240;16.478;2023-08-12T00:33:04;100302.41;;;17.70;64.42
19594;BME280;9944;48.240;16.478;2023-08-12T00:37:10;100306.97;;;17.65;64.42
19594;BME280;9944;48.240;16.478;2023-08-12T00:41:14;100304.47;;;17.59;64.83
19594;BME280;9944;48.240;16.478;2023-08-12T00:45:17;100310.78;;;17.54;64.98
19594;BME280;9944;48.240;16.478;2023-08-12T00:49:22;100317.13;;;17.50;65.23
19594;BME280;9944;48.240;16.478;2023-08-12T00:53:28;100299.47;;;17.45;65.43
19594;BME280;9944;48.240;16.478;2023-08-12T00:57:31;100311.19;;;17.39;65.49
19594;BME280;9944;48.240;16.478;2023-08-12T01:01:35;100319.25;;;17.36;65.56
19594;BME280;9944;48.240;16.478;2023-08-12T01:05:41;100306.91;;;17.30;65.85
19594;BME280;9944;48.240;16.478;2023-08-12T01:09:45;100308.78;;;17.27;66.04
19594;BME280;9944;48.240;16.478;2023-08-12T01:13:53;100310.66;;;17.22;66.08
19594;BME280;9944;48.240;16.478;2023-08-12T01:18:01;100308.19;;;17.14;66.43
19594;BME280;9944;48.240;16.478;2023-08-12T01:22:08;100308.25;;;17.11;66.57
19594;BME280;9944;48.240;16.478;2023-08-12T01:26:14;100306.53;;;17.10;66.88
19594;BME280;9944;48.240;16.478;2023-08-12T01:30:18;100307.44;;;17.07;67.08
19594;BME280;9944;48.240;16.478;2023-08-12T01:34:30;100312.00;;;17.02;67.28
19594;BME280;9944;48.240;16.478;2023-08-12T01:38:38;100318.41;;;16.93;67.39
19594;BME280;9944;48.240;16.478;2023-08-12T01:42:46;100314.94;;;16.90;67.64
19594;BME280;9944;48.240;16.478;2023-08-12T01:46:50;100313.31;;;16.83;67.85
19594;BME280;9944;48.240;16.478;2023-08-12T01:50:54;100312.53;;;16.76;68.01
19594;BME280;9944;48.240;16.478;2023-08-12T01:54:57;100316.28;;;16.67;68.21
19594;BME280;9944;48.240;16.478;2023-08-12T01:59:02;100314.59;;;16.63;68.25
19594;BME280;9944;48.240;16.478;2023-08-12T02:03:06;100313.00;;;16.54;68.29
19594;BME280;9944;48.240;16.478;2023-08-12T02:07:10;100307.78;;;16.47;68.65
19594;BME280;9944;48.240;16.478;2023-08-12T02:11:14;100319.50;;;16.39;68.86
19594;BME280;9944;48.240;16.478;2023-08-12T02:15:19;100318.72;;;16.33;68.89
19594;BME280;9944;48.240;16.478;2023-08-12T02:19:22;100317.91;;;16.29;69.03
19594;BME280;9944;48.240;16.478;2023-08-12T02:23:27;100318.03;;;16.23;69.22
19594;BME280;9944;48.240;16.478;2023-08-12T02:27:31;100318.13;;;16.17;69.42
19594;BME280;9944;48.240;16.478;2023-08-12T02:31:36;100318.13;;;16.17;69.51
19594;BME280;9944;48.240;16.478;2023-08-12T02:35:40;100316.44;;;16.13;69.73
19594;BME280;9944;48.240;16.478;2023-08-12T02:39:44;100322.81;;;16.04;69.93
19594;BME280;9944;48.240;16.478;2023-08-12T02:43:47;100312.22;;;16.01;70.06
19594;BME280;9944;48.240;16.478;2023-08-12T02:47:52;100314.09;;;15.96;70.19
19594;BME280;9944;48.240;16.478;2023-08-12T02:51:55;100317.63;;;15.95;70.24
19594;BME280;9944;48.240;16.478;2023-08-12T02:55:59;100319.44;;;15.93;70.28
19594;BME280;9944;48.240;16.478;2023-08-12T03:00:03;100316.81;;;15.91;70.39
19594;BME280;9944;48.240;16.478;2023-08-12T03:04:09;100318.63;;;15.89;70.38
19594;BME280;9944;48.240;16.478;2023-08-12T03:08:13;100321.34;;;15.86;70.55
19594;BME280;9944;48.240;16.478;2023-08-12T03:12:17;100329.31;;;15.86;70.72
19594;BME280;9944;48.240;16.478;2023-08-12T03:16:21;100333.81;;;15.81;70.69
19594;BME280;9944;48.240;16.478;2023-08-12T03:20:28;100329.44;;;15.78;70.76
19594;BME280;9944;48.240;16.478;2023-08-12T03:24:31;100333.91;;;15.76;70.77
19594;BME280;9944;48.240;16.478;2023-08-12T03:28:36;100330.47;;;15.69;70.68
19594;BME280;9944;48.240;16.478;2023-08-12T03:32:41;100329.66;;;15.64;70.78
19594;BME280;9944;48.240;16.478;2023-08-12T03:36:46;100338.59;;;15.60;70.75
19594;BME280;9944;48.240;16.478;2023-08-12T03:40:53;100336.88;;;15.56;70.76
19594;BME280;9944;48.240;16.478;2023-08-12T03:44:58;100333.38;;;15.53;70.87
19594;BME280;9944;48.240;16.478;2023-08-12T03:49:02;100344.13;;;15.46;70.92
19594;BME280;9944;48.240;16.478;2023-08-12T03:53:07;100338.00;;;15.41;71.03
19594;BME280;9944;48.240;16.478;2023-08-12T03:57:13;100335.41;;;15.37;71.21
19594;BME280;9944;48.240;16.478;2023-08-12T04:01:17;100326.56;;;15.35;71.46
19594;BME280;9944;48.240;16.478;2023-08-12T04:05:20;100329.25;;;15.33;71.34
19594;BME280;9944;48.240;16.478;2023-08-12T04:09:25;100325.75;;;15.31;71.42
19594;BME280;9944;48.240;16.478;2023-08-12T04:13:29;100331.97;;;15.28;71.35
19594;BME280;9944;48.240;16.478;2023-08-12T04:17:32;100324.91;;;15.27;71.40
19594;BME280;9944;48.240;16.478;2023-08-12T04:21:38;100324.91;;;15.27;71.43
19594;BME280;9944;48.240;16.478;2023-08-12T04:25:44;100321.38;;;15.25;71.69
19594;BME280;9944;48.240;16.478;2023-08-12T04:29:48;100331.13;;;15.25;71.94
19594;BME280;9944;48.240;16.478;2023-08-12T04:33:53;100330.28;;;15.24;72.03
19594;BME280;9944;48.240;16.478;2023-08-12T04:37:59;100324.03;;;15.25;72.32
19594;BME280;9944;48.240;16.478;2023-08-12T04:42:05;100327.59;;;15.26;72.58
19594;BME280;9944;48.240;16.478;2023-08-12T04:46:09;100334.66;;;15.27;72.62
19594;BME280;9944;48.240;16.478;2023-08-12T04:50:13;100341.72;;;15.29;72.74
19594;BME280;9944;48.240;16.478;2023-08-12T04:54:17;100340.81;;;15.30;72.63
19594;BME280;9944;48.240;16.478;2023-08-12T04:58:24;100337.28;;;15.28;72.76
19594;BME280;9944;48.240;16.478;2023-08-12T05:02:28;100347.03;;;15.29;73.04
19594;BME280;9944;48.240;16.478;2023-08-12T05:06:31;100347.94;;;15.28;73.28
19594;BME280;9944;48.240;16.478;2023-08-12T05:10:36;100354.09;;;15.32;73.53
19594;BME280;9944;48.240;16.478;2023-08-12T05:14:41;100339.88;;;15.35;73.36
19594;BME280;9944;48.240;16.478;2023-08-12T05:18:45;100343.38;;;15.38;73.51
19594;BME280;9944;48.240;16.478;2023-08-12T05:22:49;100334.44;;;15.42;73.84
19594;BME280;9944;48.240;16.478;2023-08-12T05:26:52;100342.34;;;15.47;74.05
19594;BME280;9944;48.240;16.478;2023-08-12T05:30:57;100344.91;;;15.53;74.04
19594;BME280;9944;48.240;16.478;2023-08-12T05:35:01;100333.38;;;15.54;74.12
19594;BME280;9944;48.240;16.478;2023-08-12T05:39:04;100342.13;;;15.62;74.31
19594;BME280;9944;48.240;16.478;2023-08-12T05:43:08;100337.50;;;15.72;74.55
19594;BME280;9944;48.240;16.478;2023-08-12T05:47:13;100338.22;;;15.83;74.43
19594;BME280;9944;48.240;16.478;2023-08-12T05:51:17;100331.81;;;15.97;74.56
19594;BME280;9944;48.240;16.478;2023-08-12T05:55:20;100329.75;;;16.14;74.16
19594;BME280;9944;48.240;16.478;2023-08-12T05:59:24;100333.88;;;16.29;73.84
19594;BME280;9944;48.240;16.478;2023-08-12T06:03:29;100332.69;;;16.47;73.77
19594;BME280;9944;48.240;16.478;2023-08-12T06:07:33;100335.72;;;16.72;73.03
19594;BME280;9944;48.240;16.478;2023-08-12T06:11:36;100344.16;;;16.96;72.73
19594;BME280;9944;48.240;16.478;2023-08-12T06:15:40;100345.31;;;17.23;72.12
19594;BME280;9944;48.240;16.478;2023-08-12T06:19:45;100339.53;;;17.45;71.58
19594;BME280;9944;48.240;16.478;2023-08-12T06:23:48;100336.34;;;17.65;70.66
19594;BME280;9944;48.240;16.478;2023-08-12T06:27:52;100335.03;;;17.84;69.91
19594;BME280;9944;48.240;16.478;2023-08-12T06:31:55;100321.16;;;18.04;69.10
19594;BME280;9944;48.240;16.478;2023-08-12T06:36:00;100318.13;;;18.18;68.91
19594;BME280;9944;48.240;16.478;2023-08-12T06:40:04;100315.03;;;18.34;68.16
19594;BME280;9944;48.240;16.478;2023-08-12T06:44:08;100313.63;;;18.51;67.83
19594;BME280;9944;48.240;16.478;2023-08-12T06:48:12;100312.16;;;18.73;67.41
19594;BME280;9944;48.240;16.478;2023-08-12T06:52:17;100308.13;;;18.89;66.58
19594;BME280;9944;48.240;16.478;2023-08-12T06:56:20;100308.53;;;19.05;66.18
19594;BME280;9944;48.240;16.478;2023-08-12T07:00:24;100307.09;;;19.23;65.79
19594;BME280;9944;48.240;16.478;2023-08-12T07:04:27;100306.22;;;19.51;65.89
19594;BME280;9944;48.240;16.478;2023-08-12T07:08:32;100316.13;;;19.77;65.09
19594;BME280;9944;48.240;16.478;2023-08-12T07:12:36;100315.41;;;19.97;64.28
19594;BME280;9944;48.240;16.478;2023-08-12T07:16:40;100305.94;;;20.13;63.59
19594;BME280;9944;48.240;16.478;2023-08-12T07:20:43;100302.50;;;20.35;63.42
19594;BME280;9944;48.240;16.478;2023-08-12T07:24:49;100307.06;;;20.56;63.17
19594;BME280;9944;48.240;16.478;2023-08-12T07:28:54;100311.66;;;20.78;62.55
19594;BME280;9944;48.240;16.478;2023-08-12T07:32:57;100297.66;;;20.93;62.22
19594;BME280;9944;48.240;16.478;2023-08-12T07:37:02;100299.50;;;21.15;62.16
19594;BME280;9944;48.240;16.478;2023-08-12T07:41:07;100306.84;;;21.34;61.25
19594;BME280;9944;48.240;16.478;2023-08-12T07:45:11;100301.78;;;21.48;60.56
19594;BME280;9944;48.240;16.478;2023-08-12T07:49:15;100289.38;;;21.66;59.79
19594;BME280;9944;48.240;16.478;2023-08-12T07:53:19;100297.75;;;21.82;59.16
19594;BME280;9944;48.240;16.478;2023-08-12T07:57:24;100284.69;;;21.93;58.49
19594;BME280;9944;48.240;16.478;2023-08-12T08:01:28;100295.47;;;22.14;57.76
19594;BME280;9944;48.240;16.478;2023-08-12T08:05:32;100280.59;;;22.25;57.77
19594;BME280;9944;48.240;16.478;2023-08-12T08:09:36;100281.72;;;22.40;57.29
19594;BME280;9944;48.240;16.478;2023-08-12T08:13:41;100284.47;;;22.59;57.17
19594;BME280;9944;48.240;16.478;2023-08-12T08:17:44;100268.41;;;22.77;56.11
19594;BME280;9944;48.240;16.478;2023-08-12T08:21:48;100264.66;;;22.81;56.73
19594;BME280;9944;48.240;16.478;2023-08-12T08:25:51;100258.38;;;22.99;55.86
19594;BME280;9944;48.240;16.478;2023-08-12T08:29:56;100260.47;;;23.12;55.66
19594;BME280;9944;48.240;16.478;2023-08-12T08:34:00;100259.59;;;23.30;54.66
19594;BME280;9944;48.240;16.478;2023-08-12T08:38:03;100251.78;;;23.43;54.15
19594;BME280;9944;48.240;16.478;2023-08-12T08:42:10;100248.31;;;23.59;53.48
19594;BME280;9944;48.240;16.478;2023-08-12T08:46:17;100260.22;;;23.72;53.37
19594;BME280;9944;48.240;16.478;2023-08-12T08:50:21;100258.00;;;23.80;53.09
19594;BME280;9944;48.240;16.478;2023-08-12T08:54:25;100257.06;;;23.99;53.60
19594;BME280;9944;48.240;16.478;2023-08-12T08:58:29;100256.28;;;24.14;53.00
19594;BME280;9944;48.240;16.478;2023-08-12T09:02:35;100252.69;;;24.31;53.59
19594;BME280;9944;48.240;16.478;2023-08-12T09:06:40;100254.41;;;24.49;53.45
19594;BME280;9944;48.240;16.478;2023-08-12T09:10:46;100249.84;;;24.67;52.80
19594;BME280;9944;48.240;16.478;2023-08-12T09:14:50;100248.44;;;24.76;52.22
19594;BME280;9944;48.240;16.478;2023-08-12T09:18:56;100247.22;;;24.82;51.66
19594;BME280;9944;48.240;16.478;2023-08-12T09:23:00;100244.81;;;24.93;52.38
19594;BME280;9944;48.240;16.478;2023-08-12T09:27:04;100233.13;;;25.09;52.19
19594;BME280;9944;48.240;16.478;2023-08-12T09:31:11;100233.84;;;25.28;52.53
19594;BME280;9944;48.240;16.478;2023-08-12T09:35:32;100227.88;;;25.37;51.58
19594;BME280;9944;48.240;16.478;2023-08-12T09:39:37;100232.94;;;25.43;51.41
19594;BME280;9944;48.240;16.478;2023-08-12T09:43:41;100231.34;;;25.55;51.58
19594;BME280;9944;48.240;16.478;2023-08-12T09:47:46;100227.72;;;25.71;51.37
19594;BME280;9944;48.240;16.478;2023-08-12T09:51:51;100223.59;;;25.79;50.55
19594;BME280;9944;48.240;16.478;2023-08-12T09:55:57;100219.97;;;25.95;50.67
19594;BME280;9944;48.240;16.478;2023-08-12T10:00:03;100205.59;;;26.09;49.42
19594;BME280;9944;48.240;16.478;2023-08-12T10:04:17;100203.38;;;26.15;49.40
19594;BME280;9944;48.240;16.478;2023-08-12T10:08:24;100209.88;;;26.27;49.25
19594;BME280;9944;48.240;16.478;2023-08-12T10:12:29;100205.34;;;26.42;49.28
19594;BME280;9944;48.240;16.478;2023-08-12T10:16:33;100198.56;;;26.49;48.55
19594;BME280;9944;48.240;16.478;2023-08-12T10:20:38;100193.56;;;26.58;47.87
19594;BME280;9944;48.240;16.478;2023-08-12T10:24:44;100194.69;;;26.68;47.74
19594;BME280;9944;48.240;16.478;2023-08-12T10:28:49;100182.94;;;26.82;46.73
19594;BME280;9944;48.240;16.478;2023-08-12T10:32:54;100183.97;;;26.93;46.28
19594;BME280;9944;48.240;16.478;2023-08-12T10:37:01;100183.38;;;27.03;45.50
19594;BME280;9944;48.240;16.478;2023-08-12T10:41:17;100188.38;;;27.09;44.69
19594;BME280;9944;48.240;16.478;2023-08-12T10:45:21;100178.28;;;27.11;44.81
19594;BME280;9944;48.240;16.478;2023-08-12T10:49:25;100178.91;;;27.16;44.78
19594;BME280;9944;48.240;16.478;2023-08-12T10:53:32;100170.72;;;27.31;44.73
19594;BME280;9944;48.240;16.478;2023-08-12T10:57:38;100172.78;;;27.40;44.65
19594;BME280;9944;48.240;16.478;2023-08-12T11:01:42;100158.38;;;27.52;44.44
19594;BME280;9944;48.240;16.478;2023-08-12T11:05:46;100165.13;;;27.59;43.88
19594;BME280;9944;48.240;16.478;2023-08-12T11:09:52;100159.03;;;27.68;43.76
19594;BME280;9944;48.240;16.478;2023-08-12T11:13:58;100151.28;;;27.77;43.40
19594;BME280;9944;48.240;16.478;2023-08-12T11:18:02;100159.97;;;27.82;43.48
19594;BME280;9944;48.240;16.478;2023-08-12T11:22:07;100154.13;;;27.88;42.79
19594;BME280;9944;48.240;16.478;2023-08-12T11:26:13;100152.16;;;27.90;42.89
19594;BME280;9944;48.240;16.478;2023-08-12T11:30:20;100146.06;;;27.99;43.43
19594;BME280;9944;48.240;16.478;2023-08-12T11:34:24;100152.69;;;28.08;43.28
19594;BME280;9944;48.240;16.478;2023-08-12T11:38:28;100139.56;;;28.15;43.40
19594;BME280;9944;48.240;16.478;2023-08-12T11:42:31;100133.69;;;28.21;43.02
19594;BME280;9944;48.240;16.478;2023-08-12T11:46:36;100132.25;;;28.28;42.10
19594;BME280;9944;48.240;16.478;2023-08-12T11:50:40;100123.66;;;28.34;42.62
19594;BME280;9944;48.240;16.478;2023-08-12T11:54:43;100120.44;;;28.42;42.98
19594;BME280;9944;48.240;16.478;2023-08-12T11:58:48;100109.34;;;28.45;42.55
19594;BME280;9944;48.240;16.478;2023-08-12T12:02:57;100103.00;;;28.57;43.22
19594;BME280;9944;48.240;16.478;2023-08-12T12:07:03;100089.03;;;28.62;43.16
19594;BME280;9944;48.240;16.478;2023-08-12T12:11:19;100086.44;;;28.60;42.11
19594;BME280;9944;48.240;16.478;2023-08-12T12:15:23;100080.56;;;28.67;42.56
19594;BME280;9944;48.240;16.478;2023-08-12T12:19:29;100076.41;;;28.74;42.56
19594;BME280;9944;48.240;16.478;2023-08-12T12:23:32;100071.59;;;28.77;41.94
19594;BME280;9944;48.240;16.478;2023-08-12T12:27:37;100063.97;;;28.83;41.40
19594;BME280;9944;48.240;16.478;2023-08-12T12:31:41;100067.69;;;28.82;41.61
19594;BME280;9944;48.240;16.478;2023-08-12T12:35:46;100061.97;;;28.85;41.33
19594;BME280;9944;48.240;16.478;2023-08-12T12:40:00;100065.03;;;28.93;40.41
19594;BME280;9944;48.240;16.478;2023-08-12T12:44:05;100051.50;;;28.91;40.45
19594;BME280;9944;48.240;16.478;2023-08-12T12:48:08;100049.91;;;28.89;40.10
19594;BME280;9944;48.240;16.478;2023-08-12T12:52:13;100050.88;;;28.88;40.36
19594;BME280;9944;48.240;16.478;2023-08-12T12:56:17;100042.72;;;28.88;40.05
19594;BME280;9944;48.240;16.478;2023-08-12T13:00:20;100040.63;;;28.91;40.02
19594;BME280;9944;48.240;16.478;2023-08-12T13:04:24;100038.81;;;28.92;40.29
19594;BME280;9944;48.240;16.478;2023-08-12T13:08:29;100034.91;;;28.96;39.71
19594;BME280;9944;48.240;16.478;2023-08-12T13:12:33;100036.03;;;29.05;40.19
19594;BME280;9944;48.240;16.478;2023-08-12T13:16:37;100028.38;;;29.10;39.62
19594;BME280;9944;48.240;16.478;2023-08-12T13:20:41;100026.75;;;29.07;39.72
19594;BME280;9944;48.240;16.478;2023-08-12T13:24:45;100021.69;;;29.03;39.18
19594;BME280;9944;48.240;16.478;2023-08-12T13:28:49;100029.47;;;28.96;39.46
19594;BME280;9944;48.240;16.478;2023-08-12T13:32:53;100013.69;;;28.88;38.68
19594;BME280;9944;48.240;16.478;2023-08-12T13:36:56;100012.44;;;28.81;39.37
19594;BME280;9944;48.240;16.478;2023-08-12T13:41:01;100013.84;;;28.87;39.80
19594;BME280;9944;48.240;16.478;2023-08-12T13:45:05;100005.53;;;28.88;39.89
19594;BME280;9944;48.240;16.478;2023-08-12T13:49:09;100003.72;;;28.89;40.11
19594;BME280;9944;48.240;16.478;2023-08-12T13:53:13;100003.94;;;28.86;39.28
19594;BME280;9944;48.240;16.478;2023-08-12T13:57:18;99997.03;;;28.82;39.65
19594;BME280;9944;48.240;16.478;2023-08-12T14:01:22;99994.41;;;28.80;40.10
19594;BME280;9944;48.240;16.478;2023-08-12T14:05:25;99994.66;;;28.77;40.00
19594;BME280;9944;48.240;16.478;2023-08-12T14:09:29;99991.63;;;28.69;39.94
19594;BME280;9944;48.240;16.478;2023-08-12T14:13:34;99981.63;;;28.69;40.31
19594;BME280;9944;48.240;16.478;2023-08-12T14:17:38;99980.44;;;28.73;39.71
19594;BME280;9944;48.240;16.478;2023-08-12T14:21:41;99978.69;;;28.72;40.18
19594;BME280;9944;48.240;16.478;2023-08-12T14:25:44;99971.03;;;28.66;40.54
19594;BME280;9944;48.240;16.478;2023-08-12T14:29:49;99974.19;;;28.60;39.80
19594;BME280;9944;48.240;16.478;2023-08-12T14:33:53;99964.34;;;28.59;40.20
19594;BME280;9944;48.240;16.478;2023-08-12T14:37:56;99962.81;;;28.55;40.65
19594;BME280;9944;48.240;16.478;2023-08-12T14:42:01;99970.44;;;28.50;40.44
19594;BME280;9944;48.240;16.478;2023-08-12T14:46:07;99967.47;;;28.41;40.71
19594;BME280;9944;48.240;16.478;2023-08-12T14:50:11;99962.38;;;28.37;40.84
19594;BME280;9944;48.240;16.478;2023-08-12T14:54:15;99962.69;;;28.32;40.50
19594;BME280;9944;48.240;16.478;2023-08-12T14:58:18;99961.41;;;28.25;41.13
19594;BME280;9944;48.240;16.478;2023-08-12T15:02:23;99961.63;;;28.22;41.26
19594;BME280;9944;48.240;16.478;2023-08-12T15:06:27;99954.50;;;28.21;41.52
19594;BME280;9944;48.240;16.478;2023-08-12T15:10:30;99955.47;;;28.20;41.35
19594;BME280;9944;48.240;16.478;2023-08-12T15:14:34;99952.00;;;28.18;41.19
19594;BME280;9944;48.240;16.478;2023-08-12T15:18:39;99954.09;;;28.14;41.38
19594;BME280;9944;48.240;16.478;2023-08-12T15:22:44;99943.03;;;28.04;41.63
19594;BME280;9944;48.240;16.478;2023-08-12T15:26:48;99944.25;;;28.00;41.78
19594;BME280;9944;48.240;16.478;2023-08-12T15:30:51;99940.91;;;27.97;41.35
19594;BME280;9944;48.240;16.478;2023-08-12T15:34:56;99939.53;;;27.91;41.99
19594;BME280;9944;48.240;16.478;2023-08-12T15:39:00;99934.66;;;27.83;42.06
19594;BME280;9944;48.240;16.478;2023-08-12T15:43:04;99939.84;;;27.74;41.77
19594;BME280;9944;48.240;16.478;2023-08-12T15:47:07;99932.06;;;27.69;42.33
19594;BME280;9944;48.240;16.478;2023-08-12T15:51:12;99940.53;;;27.64;42.67
19594;BME280;9944;48.240;16.478;2023-08-12T15:55:16;99930.00;;;27.60;42.93
19594;BME280;9944;48.240;16.478;2023-08-12T15:59:19;99922.44;;;27.52;43.04
19594;BME280;9944;48.240;16.478;2023-08-12T16:03:24;99918.44;;;27.45;43.05
19594;BME280;9944;48.240;16.478;2023-08-12T16:07:29;99927.25;;;27.36;43.22
19594;BME280;9944;48.240;16.478;2023-08-12T16:11:32;99918.91;;;27.26;43.78
19594;BME280;9944;48.240;16.478;2023-08-12T16:15:36;99915.00;;;27.17;44.73
19594;BME280;9944;48.240;16.478;2023-08-12T16:19:41;99910.88;;;27.11;44.33
19594;BME280;9944;48.240;16.478;2023-08-12T16:23:49;99919.50;;;27.04;44.05
19594;BME280;9944;48.240;16.478;2023-08-12T16:27:53;99917.38;;;26.96;44.48
19594;BME280;9944;48.240;16.478;2023-08-12T16:31:56;99918.13;;;26.85;44.54
19594;BME280;9944;48.240;16.478;2023-08-12T16:36:00;99922.34;;;26.77;44.99
19594;BME280;9944;48.240;16.478;2023-08-12T16:40:07;99919.28;;;26.68;45.11
19594;BME280;9944;48.240;16.478;2023-08-12T16:44:11;99915.03;;;26.64;45.39
19594;BME280;9944;48.240;16.478;2023-08-12T16:48:14;99926.41;;;26.57;45.54
19594;BME280;9944;48.240;16.478;2023-08-12T16:52:18;99918.78;;;26.49;45.90
19594;BME280;9944;48.240;16.478;2023-08-12T16:56:23;99930.88;;;26.43;46.28
19594;BME280;9944;48.240;16.478;2023-08-12T17:00:26;99924.91;;;26.38;46.35
19594;BME280;9944;48.240;16.478;2023-08-12T17:04:30;99916.47;;;26.30;46.84
19594;BME280;9944;48.240;16.478;2023-08-12T17:08:33;99915.91;;;26.25;47.17
19594;BME280;9944;48.240;16.478;2023-08-12T17:12:38;99909.38;;;26.14;47.17
19594;BME280;9944;48.240;16.478;2023-08-12T17:16:42;99908.06;;;26.07;47.10
19594;BME280;9944;48.240;16.478;2023-08-12T17:20:46;99903.03;;;26.01;47.38
19594;BME280;9944;48.240;16.478;2023-08-12T17:24:49;99903.66;;;25.92;47.38
19594;BME280;9944;48.240;16.478;2023-08-12T17:28:54;99904.22;;;25.83;47.64
19594;BME280;9944;48.240;16.478;2023-08-12T17:32:57;99902.88;;;25.75;48.01
19594;BME280;9944;48.240;16.478;2023-08-12T17:37:01;99901.66;;;25.67;48.33
19594;BME280;9944;48.240;16.478;2023-08-12T17:41:05;99895.88;;;25.58;48.02
19594;BME280;9944;48.240;16.478;2023-08-12T17:45:10;99907.19;;;25.51;48.40
19594;BME280;9944;48.240;16.478;2023-08-12T17:49:13;99909.41;;;25.44;49.06
19594;BME280;9944;48.240;16.478;2023-08-12T17:53:17;99913.56;;;25.35;48.74
19594;BME280;9944;48.240;16.478;2023-08-12T17:57:21;99918.56;;;25.27;49.18
19594;BME280;9944;48.240;16.478;2023-08-12T18:01:26;99915.69;;;25.16;49.18
19594;BME280;9944;48.240;16.478;2023-08-12T18:05:29;99915.59;;;25.03;49.53
19594;BME280;9944;48.240;16.478;2023-08-12T18:09:33;99918.06;;;24.92;49.72
19594;BME280;9944;48.240;16.478;2023-08-12T18:13:36;99922.38;;;24.80;50.10
19594;BME280;9944;48.240;16.478;2023-08-12T18:17:41;99922.97;;;24.71;50.54
19594;BME280;9944;48.240;16.478;2023-08-12T18:21:45;99939.41;;;24.66;50.57
19594;BME280;9944;48.240;16.478;2023-08-12T18:25:49;99946.03;;;24.60;50.66
19594;BME280;9944;48.240;16.478;2023-08-12T18:29:52;99935.97;;;24.48;51.11
19594;BME280;9944;48.240;16.478;2023-08-12T18:33:57;99938.41;;;24.37;51.08
19594;BME280;9944;48.240;16.478;2023-08-12T18:38:01;99948.81;;;24.28;51.65
19594;BME280;9944;48.240;16.478;2023-08-12T18:42:05;99945.88;;;24.17;51.56
19594;BME280;9944;48.240;16.478;2023-08-12T18:46:08;99949.00;;;24.09;51.83
19594;BME280;9944;48.240;16.478;2023-08-12T18:50:13;99953.81;;;24.04;51.92
19594;BME280;9944;48.240;16.478;2023-08-12T18:54:17;99962.31;;;23.97;51.82
19594;BME280;9944;48.240;16.478;2023-08-12T18:58:21;99948.56;;;23.85;52.05
19594;BME280;9944;48.240;16.478;2023-08-12T19:02:24;99961.59;;;23.77;52.53
19594;BME280;9944;48.240;16.478;2023-08-12T19:06:29;99969.06;;;23.72;52.52
19594;BME280;9944;48.240;16.478;2023-08-12T19:10:33;99969.44;;;23.66;52.78
19594;BME280;9944;48.240;16.478;2023-08-12T19:14:36;99960.09;;;23.55;53.18
19594;BME280;9944;48.240;16.478;2023-08-12T19:18:39;99969.56;;;23.47;53.18
19594;BME280;9944;48.240;16.478;2023-08-12T19:22:45;99957.34;;;23.40;53.85
19594;BME280;9944;48.240;16.478;2023-08-12T19:26:48;99961.34;;;23.32;53.84
19594;BME280;9944;48.240;16.478;2023-08-12T19:30:52;99967.28;;;23.22;53.96
19594;BME280;9944;48.240;16.478;2023-08-12T19:34:56;99974.09;;;23.11;54.44
19594;BME280;9944;48.240;16.478;2023-08-12T19:39:01;99979.84;;;23.05;55.17
19594;BME280;9944;48.240;16.478;2023-08-12T19:43:04;99973.00;;;22.98;55.30
19594;BME280;9944;48.240;16.478;2023-08-12T19:47:08;99981.50;;;22.90;55.50
19594;BME280;9944;48.240;16.478;2023-08-12T19:51:12;99974.53;;;22.86;55.32
19594;BME280;9944;48.240;16.478;2023-08-12T19:55:16;99973.00;;;22.80;55.58
19594;BME280;9944;48.240;16.478;2023-08-12T19:59:20;99967.00;;;22.75;55.92
19594;BME280;9944;48.240;16.478;2023-08-12T20:03:24;99970.97;;;22.68;55.70
19594;BME280;9944;48.240;16.478;2023-08-12T20:07:27;99971.44;;;22.59;56.67
19594;BME280;9944;48.240;16.478;2023-08-12T20:11:32;99965.34;;;22.55;56.38
19594;BME280;9944;48.240;16.478;2023-08-12T20:15:36;99967.38;;;22.50;56.79
19594;BME280;9944;48.240;16.478;2023-08-12T20:19:39;99972.03;;;22.47;57.13
19594;BME280;9944;48.240;16.478;2023-08-12T20:23:43;99966.00;;;22.41;56.88
19594;BME280;9944;48.240;16.478;2023-08-12T20:27:48;99968.06;;;22.36;56.92
19594;BME280;9944;48.240;16.478;2023-08-12T20:31:52;99964.81;;;22.30;57.59
19594;BME280;9944;48.240;16.478;2023-08-12T20:35:55;99962.56;;;22.20;57.57
19594;BME280;9944;48.240;16.478;2023-08-12T20:39:59;99963.13;;;22.10;57.40
19594;BME280;9944;48.240;16.478;2023-08-12T20:44:04;99971.41;;;22.05;58.31
19594;BME280;9944;48.240;16.478;2023-08-12T20:48:08;99974.28;;;22.00;57.94
19594;BME280;9944;48.240;16.478;2023-08-12T20:52:12;99978.22;;;21.93;58.64
19594;BME280;9944;48.240;16.478;2023-08-12T20:56:16;99978.53;;;21.87;58.25
19594;BME280;9944;48.240;16.478;2023-08-12T21:00:21;99980.56;;;21.82;58.66
19594;BME280;9944;48.240;16.478;2023-08-12T21:04:25;99991.44;;;21.79;58.74
19594;BME280;9944;48.240;16.478;2023-08-12T21:08:28;99970.22;;;21.73;58.86
19594;BME280;9944;48.240;16.478;2023-08-12T21:12:32;99972.25;;;21.67;58.82
19594;BME280;9944;48.240;16.478;2023-08-12T21:16:37;99969.94;;;21.60;59.42
19594;BME280;9944;48.240;16.478;2023-08-12T21:20:40;99962.19;;;21.52;59.50